sensor_id;sensor_type;location;lat;lon;timestamp;P1;durP1;ratioP1;P2;durP2;ratioP2
45224;SDS011;30963;48.696;8.764;2022-07-29T00:01:29;8.50;;;7.80;;
45224;SDS011;30963;48.696;8.764;2022-07-29T00:03:58;8.27;;;7.53;;
45224;SDS011;30963;48.696;8.764;2022-07-29T00:06:24;8.15;;;7.40;;
45224;SDS011;30963;48.696;8.764;2022-07-29T00:08:50;8.82;;;8.13;;
45224;SDS011;30963;48.696;8.764;2022-07-29T00:11:18;9.10;;;8.30;;
45224;SDS011;30963;48.696;8.764;2022-07-29T00:13:44;8.25;;;7.55;;
45224;SDS011;30963;48.696;8.764;2022-07-29T00:16:10;9.07;;;8.02;;
45224;SDS011;30963;48.696;8.764;2022-07-29T00:18:38;9.20;;;8.30;;
45224;SDS011;30963;48.696;8.764;2022-07-29T00:21:04;8.80;;;8.20;;
45224;SDS011;30963;48.696;8.764;2022-07-29T00:23:30;9.07;;;8.27;;
45224;SDS011;30963;48.696;8.764;2022-07-29T00:25:56;8.77;;;8.07;;
45224;SDS011;30963;48.696;8.764;2022-07-29T00:28:22;8.82;;;8.02;;
45224;SDS011;30963;48.696;8.764;2022-07-29T00:30:48;8.73;;;7.95;;
45224;SDS011;30963;48.696;8.764;2022-07-29T00:33:14;8.43;;;7.72;;
45224;SDS011;30963;48.696;8.764;2022-07-29T00:35:40;9.30;;;8.60;;
45224;SDS011;30963;48.696;8.764;2022-07-29T00:38:16;9.45;;;8.55;;
45224;SDS011;30963;48.696;8.764;2022-07-29T00:40:45;9.35;;;8.65;;
45224;SDS011;30963;48.696;8.764;2022-07-29T00:43:12;10.60;;;9.65;;
45224;SDS011;30963;48.696;8.764;2022-07-29T00:45:38;9.65;;;8.82;;
45224;SDS011;30963;48.696;8.764;2022-07-29T00:48:07;9.60;;;8.70;;
45224;SDS011;30963;48.696;8.764;2022-07-29T00:50:34;8.82;;;8.00;;
45224;SDS011;30963;48.696;8.764;2022-07-29T00:53:00;9.95;;;9.10;;
45224;SDS011;30963;48.696;8.764;2022-07-29T00:55:26;9.68;;;8.82;;
45224;SDS011;30963;48.696;8.764;2022-07-29T00:57:52;9.13;;;8.43;;
45224;SDS011;30963;48.696;8.764;2022-07-29T01:00:20;9.50;;;8.73;;
45224;SDS011;30963;48.696;8.764;2022-07-29T01:02:46;9.85;;;9.05;;
45224;SDS011;30963;48.696;8.764;2022-07-29T01:05:20;10.43;;;9.10;;
45224;SDS011;30963;48.696;8.764;2022-07-29T01:07:46;10.90;;;9.90;;
45224;SDS011;30963;48.696;8.764;2022-07-29T01:10:13;9.82;;;8.93;;
45224;SDS011;30963;48.696;8.764;2022-07-29T01:12:40;10.68;;;9.77;;
45224;SDS011;30963;48.696;8.764;2022-07-29T01:15:08;9.63;;;8.82;;
45224;SDS011;30963;48.696;8.764;2022-07-29T01:17:39;10.63;;;9.43;;
45224;SDS011;30963;48.696;8.764;2022-07-29T01:25:18;10.65;;;9.75;;
45224;SDS011;30963;48.696;8.764;2022-07-29T01:30:17;9.32;;;8.52;;
45224;SDS011;30963;48.696;8.764;2022-07-29T01:32:44;9.75;;;8.95;;
45224;SDS011;30963;48.696;8.764;2022-07-29T01:35:21;9.43;;;8.63;;
45224;SDS011;30963;48.696;8.764;2022-07-29T01:37:50;10.70;;;9.60;;
45224;SDS011;30963;48.696;8.764;2022-07-29T01:40:25;9.68;;;8.85;;
45224;SDS011;30963;48.696;8.764;2022-07-29T01:42:55;9.10;;;8.30;;
45224;SDS011;30963;48.696;8.764;2022-07-29T01:48:31;10.48;;;9.27;;
45224;SDS011;30963;48.696;8.764;2022-07-29T01:51:07;10.15;;;9.13;;
45224;SDS011;30963;48.696;8.764;2022-07-29T01:53:37;8.80;;;8.15;;
45224;SDS011;30963;48.696;8.764;2022-07-29T01:56:04;8.25;;;7.57;;
45224;SDS011;30963;48.696;8.764;2022-07-29T01:58:31;9.55;;;8.68;;
45224;SDS011;30963;48.696;8.764;2022-07-29T02:00:58;9.82;;;8.27;;
45224;SDS011;30963;48.696;8.764;2022-07-29T02:03:25;9.00;;;8.23;;
45224;SDS011;30963;48.696;8.764;2022-07-29T02:05:52;8.70;;;7.90;;
45224;SDS011;30963;48.696;8.764;2022-07-29T02:08:19;8.85;;;8.05;;
45224;SDS011;30963;48.696;8.764;2022-07-29T02:10:45;8.77;;;8.13;;
45224;SDS011;30963;48.696;8.764;2022-07-29T02:13:12;8.77;;;7.88;;
45224;SDS011;30963;48.696;8.764;2022-07-29T02:15:42;8.30;;;7.55;;
45224;SDS011;30963;48.696;8.764;2022-07-29T02:18:11;9.15;;;8.45;;
45224;SDS011;30963;48.696;8.764;2022-07-29T02:20:38;8.93;;;8.15;;
45224;SDS011;30963;48.696;8.764;2022-07-29T02:23:08;8.05;;;7.38;;
45224;SDS011;30963;48.696;8.764;2022-07-29T02:25:35;8.10;;;7.43;;
45224;SDS011;30963;48.696;8.764;2022-07-29T02:28:03;8.45;;;7.82;;
45224;SDS011;30963;48.696;8.764;2022-07-29T02:30:29;9.80;;;8.88;;
45224;SDS011;30963;48.696;8.764;2022-07-29T02:32:56;10.38;;;9.55;;
45224;SDS011;30963;48.696;8.764;2022-07-29T02:35:22;10.10;;;9.20;;
45224;SDS011;30963;48.696;8.764;2022-07-29T02:37:48;9.70;;;8.95;;
45224;SDS011;30963;48.696;8.764;2022-07-29T02:40:35;10.00;;;9.15;;
45224;SDS011;30963;48.696;8.764;2022-07-29T02:43:03;9.75;;;8.90;;
45224;SDS011;30963;48.696;8.764;2022-07-29T02:45:31;9.93;;;9.10;;
45224;SDS011;30963;48.696;8.764;2022-07-29T02:47:57;9.15;;;8.35;;
45224;SDS011;30963;48.696;8.764;2022-07-29T02:50:30;9.30;;;8.50;;
45224;SDS011;30963;48.696;8.764;2022-07-29T02:52:58;9.90;;;9.00;;
45224;SDS011;30963;48.696;8.764;2022-07-29T02:55:30;8.88;;;8.07;;
45224;SDS011;30963;48.696;8.764;2022-07-29T03:00:28;9.57;;;8.60;;
45224;SDS011;30963;48.696;8.764;2022-07-29T03:02:58;8.68;;;8.00;;
45224;SDS011;30963;48.696;8.764;2022-07-29T03:05:25;9.55;;;8.68;;
45224;SDS011;30963;48.696;8.764;2022-07-29T03:07:55;9.82;;;9.00;;
45224;SDS011;30963;48.696;8.764;2022-07-29T03:10:21;8.68;;;8.05;;
45224;SDS011;30963;48.696;8.764;2022-07-29T03:12:48;8.85;;;7.95;;
45224;SDS011;30963;48.696;8.764;2022-07-29T03:15:14;9.63;;;8.82;;
45224;SDS011;30963;48.696;8.764;2022-07-29T03:17:40;9.35;;;8.48;;
45224;SDS011;30963;48.696;8.764;2022-07-29T03:20:07;9.07;;;8.27;;
45224;SDS011;30963;48.696;8.764;2022-07-29T03:22:35;8.52;;;7.82;;
45224;SDS011;30963;48.696;8.764;2022-07-29T03:25:08;9.90;;;9.00;;
45224;SDS011;30963;48.696;8.764;2022-07-29T03:27:34;9.30;;;7.65;;
45224;SDS011;30963;48.696;8.764;2022-07-29T03:30:00;8.45;;;7.82;;
45224;SDS011;30963;48.696;8.764;2022-07-29T03:32:26;8.93;;;8.15;;
45224;SDS011;30963;48.696;8.764;2022-07-29T03:34:52;9.30;;;8.52;;
45224;SDS011;30963;48.696;8.764;2022-07-29T03:37:20;9.52;;;8.70;;
45224;SDS011;30963;48.696;8.764;2022-07-29T03:39:49;8.90;;;8.20;;
45224;SDS011;30963;48.696;8.764;2022-07-29T03:42:16;8.65;;;7.95;;
45224;SDS011;30963;48.696;8.764;2022-07-29T03:44:46;8.65;;;7.95;;
45224;SDS011;30963;48.696;8.764;2022-07-29T03:47:13;8.93;;;8.20;;
45224;SDS011;30963;48.696;8.764;2022-07-29T03:49:40;8.63;;;7.93;;
45224;SDS011;30963;48.696;8.764;2022-07-29T03:52:06;9.10;;;8.38;;
45224;SDS011;30963;48.696;8.764;2022-07-29T03:54:33;9.40;;;8.60;;
45224;SDS011;30963;48.696;8.764;2022-07-29T03:56:59;8.60;;;7.80;;
45224;SDS011;30963;48.696;8.764;2022-07-29T03:59:26;8.57;;;7.88;;
45224;SDS011;30963;48.696;8.764;2022-07-29T04:01:52;9.13;;;8.35;;
45224;SDS011;30963;48.696;8.764;2022-07-29T04:04:19;7.90;;;7.30;;
45224;SDS011;30963;48.696;8.764;2022-07-29T04:06:45;8.38;;;7.68;;
45224;SDS011;30963;48.696;8.764;2022-07-29T04:09:11;8.40;;;7.70;;
45224;SDS011;30963;48.696;8.764;2022-07-29T04:11:38;7.07;;;6.57;;
45224;SDS011;30963;48.696;8.764;2022-07-29T04:14:05;8.35;;;7.65;;
45224;SDS011;30963;48.696;8.764;2022-07-29T04:16:31;8.73;;;7.93;;
45224;SDS011;30963;48.696;8.764;2022-07-29T04:18:57;8.25;;;7.53;;
45224;SDS011;30963;48.696;8.764;2022-07-29T04:21:23;8.23;;;7.63;;
45224;SDS011;30963;48.696;8.764;2022-07-29T04:23:52;9.00;;;8.35;;
45224;SDS011;30963;48.696;8.764;2022-07-29T04:26:18;8.75;;;7.95;;
45224;SDS011;30963;48.696;8.764;2022-07-29T04:28:48;9.27;;;8.50;;
45224;SDS011;30963;48.696;8.764;2022-07-29T04:31:15;9.05;;;8.35;;
45224;SDS011;30963;48.696;8.764;2022-07-29T04:33:41;9.05;;;8.45;;
45224;SDS011;30963;48.696;8.764;2022-07-29T04:36:07;9.40;;;8.75;;
45224;SDS011;30963;48.696;8.764;2022-07-29T04:38:35;8.65;;;7.95;;
45224;SDS011;30963;48.696;8.764;2022-07-29T04:41:03;9.63;;;8.82;;
45224;SDS011;30963;48.696;8.764;2022-07-29T04:43:33;9.23;;;8.27;;
45224;SDS011;30963;48.696;8.764;2022-07-29T04:45:59;11.40;;;8.38;;
45224;SDS011;30963;48.696;8.764;2022-07-29T04:48:28;11.85;;;8.68;;
45224;SDS011;30963;48.696;8.764;2022-07-29T04:50:54;9.18;;;8.23;;
45224;SDS011;30963;48.696;8.764;2022-07-29T04:53:20;9.75;;;8.95;;
45224;SDS011;30963;48.696;8.764;2022-07-29T04:55:46;8.90;;;8.18;;
45224;SDS011;30963;48.696;8.764;2022-07-29T04:58:12;9.18;;;8.40;;
45224;SDS011;30963;48.696;8.764;2022-07-29T05:00:38;9.13;;;8.32;;
45224;SDS011;30963;48.696;8.764;2022-07-29T05:03:04;8.45;;;7.85;;
45224;SDS011;30963;48.696;8.764;2022-07-29T05:05:30;9.65;;;8.85;;
45224;SDS011;30963;48.696;8.764;2022-07-29T05:07:56;8.93;;;8.32;;
45224;SDS011;30963;48.696;8.764;2022-07-29T05:10:22;9.55;;;8.57;;
45224;SDS011;30963;48.696;8.764;2022-07-29T05:12:48;9.32;;;8.52;;
45224;SDS011;30963;48.696;8.764;2022-07-29T05:15:14;9.05;;;8.30;;
45224;SDS011;30963;48.696;8.764;2022-07-29T05:17:41;9.27;;;8.48;;
45224;SDS011;30963;48.696;8.764;2022-07-29T05:20:07;10.98;;;8.70;;
45224;SDS011;30963;48.696;8.764;2022-07-29T05:22:33;9.95;;;9.05;;
45224;SDS011;30963;48.696;8.764;2022-07-29T05:24:59;9.55;;;8.60;;
45224;SDS011;30963;48.696;8.764;2022-07-29T05:27:25;9.75;;;8.95;;
45224;SDS011;30963;48.696;8.764;2022-07-29T05:29:54;11.85;;;9.05;;
45224;SDS011;30963;48.696;8.764;2022-07-29T05:32:20;9.95;;;9.05;;
45224;SDS011;30963;48.696;8.764;2022-07-29T05:34:46;10.10;;;9.30;;
45224;SDS011;30963;48.696;8.764;2022-07-29T05:37:12;9.95;;;9.20;;
45224;SDS011;30963;48.696;8.764;2022-07-29T05:39:38;9.52;;;8.73;;
45224;SDS011;30963;48.696;8.764;2022-07-29T05:42:10;10.27;;;9.38;;
45224;SDS011;30963;48.696;8.764;2022-07-29T05:44:39;10.25;;;9.35;;
45224;SDS011;30963;48.696;8.764;2022-07-29T05:47:05;9.50;;;8.70;;
45224;SDS011;30963;48.696;8.764;2022-07-29T05:49:31;10.40;;;9.52;;
45224;SDS011;30963;48.696;8.764;2022-07-29T05:52:00;10.23;;;9.38;;
45224;SDS011;30963;48.696;8.764;2022-07-29T05:54:26;9.27;;;8.50;;
45224;SDS011;30963;48.696;8.764;2022-07-29T05:56:52;9.35;;;8.55;;
45224;SDS011;30963;48.696;8.764;2022-07-29T05:59:18;9.20;;;8.40;;
45224;SDS011;30963;48.696;8.764;2022-07-29T06:01:44;9.25;;;8.52;;
45224;SDS011;30963;48.696;8.764;2022-07-29T06:04:10;8.70;;;7.90;;
45224;SDS011;30963;48.696;8.764;2022-07-29T06:06:38;8.73;;;8.02;;
45224;SDS011;30963;48.696;8.764;2022-07-29T06:09:06;8.50;;;7.90;;
45224;SDS011;30963;48.696;8.764;2022-07-29T06:11:32;8.18;;;7.57;;
45224;SDS011;30963;48.696;8.764;2022-07-29T06:14:01;8.70;;;8.00;;
45224;SDS011;30963;48.696;8.764;2022-07-29T06:16:28;9.07;;;8.40;;
45224;SDS011;30963;48.696;8.764;2022-07-29T06:18:56;7.80;;;7.20;;
45224;SDS011;30963;48.696;8.764;2022-07-29T06:21:22;9.05;;;8.25;;
45224;SDS011;30963;48.696;8.764;2022-07-29T06:23:48;8.63;;;7.93;;
45224;SDS011;30963;48.696;8.764;2022-07-29T06:26:14;8.77;;;7.93;;
45224;SDS011;30963;48.696;8.764;2022-07-29T06:28:40;8.88;;;8.10;;
45224;SDS011;30963;48.696;8.764;2022-07-29T06:31:06;8.60;;;8.00;;
45224;SDS011;30963;48.696;8.764;2022-07-29T06:33:32;8.88;;;8.15;;
45224;SDS011;30963;48.696;8.764;2022-07-29T06:36:03;8.48;;;7.78;;
45224;SDS011;30963;48.696;8.764;2022-07-29T06:38:29;7.75;;;7.07;;
45224;SDS011;30963;48.696;8.764;2022-07-29T06:40:55;7.93;;;7.30;;
45224;SDS011;30963;48.696;8.764;2022-07-29T06:43:40;8.77;;;8.07;;
45224;SDS011;30963;48.696;8.764;2022-07-29T06:46:07;8.23;;;7.53;;
45224;SDS011;30963;48.696;8.764;2022-07-29T06:48:34;8.25;;;7.50;;
45224;SDS011;30963;48.696;8.764;2022-07-29T06:51:01;7.75;;;7.15;;
45224;SDS011;30963;48.696;8.764;2022-07-29T06:53:27;7.82;;;7.22;;
45224;SDS011;30963;48.696;8.764;2022-07-29T06:55:53;8.15;;;7.50;;
45224;SDS011;30963;48.696;8.764;2022-07-29T06:58:21;8.60;;;7.90;;
45224;SDS011;30963;48.696;8.764;2022-07-29T07:00:47;7.70;;;7.10;;
45224;SDS011;30963;48.696;8.764;2022-07-29T07:03:14;7.55;;;7.00;;
45224;SDS011;30963;48.696;8.764;2022-07-29T07:05:40;7.07;;;6.47;;
45224;SDS011;30963;48.696;8.764;2022-07-29T07:08:06;8.27;;;7.47;;
45224;SDS011;30963;48.696;8.764;2022-07-29T07:10:33;8.23;;;7.45;;
45224;SDS011;30963;48.696;8.764;2022-07-29T07:13:01;7.72;;;7.13;;
45224;SDS011;30963;48.696;8.764;2022-07-29T07:15:28;7.82;;;7.13;;
45224;SDS011;30963;48.696;8.764;2022-07-29T07:17:54;8.15;;;7.53;;
45224;SDS011;30963;48.696;8.764;2022-07-29T07:20:21;8.48;;;7.75;;
45224;SDS011;30963;48.696;8.764;2022-07-29T07:22:47;7.32;;;6.72;;
45224;SDS011;30963;48.696;8.764;2022-07-29T07:25:13;8.07;;;7.47;;
45224;SDS011;30963;48.696;8.764;2022-07-29T07:27:39;8.00;;;6.97;;
45224;SDS011;30963;48.696;8.764;2022-07-29T07:30:05;7.75;;;7.20;;
45224;SDS011;30963;48.696;8.764;2022-07-29T07:32:35;7.60;;;7.00;;
45224;SDS011;30963;48.696;8.764;2022-07-29T07:35:04;7.75;;;7.22;;
45224;SDS011;30963;48.696;8.764;2022-07-29T07:37:33;7.25;;;6.65;;
45224;SDS011;30963;48.696;8.764;2022-07-29T07:40:02;7.50;;;6.90;;
45224;SDS011;30963;48.696;8.764;2022-07-29T07:42:29;7.30;;;6.70;;
45224;SDS011;30963;48.696;8.764;2022-07-29T07:44:55;7.25;;;6.65;;
45224;SDS011;30963;48.696;8.764;2022-07-29T07:47:21;6.88;;;6.28;;
45224;SDS011;30963;48.696;8.764;2022-07-29T07:49:49;6.70;;;6.10;;
45224;SDS011;30963;48.696;8.764;2022-07-29T07:52:17;6.60;;;6.00;;
45224;SDS011;30963;48.696;8.764;2022-07-29T07:54:46;7.10;;;6.40;;
45224;SDS011;30963;48.696;8.764;2022-07-29T07:57:13;7.45;;;5.72;;
45224;SDS011;30963;48.696;8.764;2022-07-29T07:59:39;6.45;;;5.20;;
45224;SDS011;30963;48.696;8.764;2022-07-29T08:02:05;9.73;;;5.20;;
45224;SDS011;30963;48.696;8.764;2022-07-29T08:04:31;6.20;;;5.70;;
45224;SDS011;30963;48.696;8.764;2022-07-29T08:06:57;5.85;;;5.30;;
45224;SDS011;30963;48.696;8.764;2022-07-29T08:09:24;6.18;;;5.60;;
45224;SDS011;30963;48.696;8.764;2022-07-29T08:11:51;6.63;;;5.70;;
45224;SDS011;30963;48.696;8.764;2022-07-29T08:14:17;5.90;;;5.40;;
45224;SDS011;30963;48.696;8.764;2022-07-29T08:16:43;9.45;;;6.28;;
45224;SDS011;30963;48.696;8.764;2022-07-29T08:19:09;6.55;;;5.97;;
45224;SDS011;30963;48.696;8.764;2022-07-29T08:21:37;6.32;;;5.72;;
45224;SDS011;30963;48.696;8.764;2022-07-29T08:24:03;5.97;;;5.50;;
45224;SDS011;30963;48.696;8.764;2022-07-29T08:26:49;6.25;;;5.63;;
45224;SDS011;30963;48.696;8.764;2022-07-29T08:29:15;6.70;;;6.10;;
45224;SDS011;30963;48.696;8.764;2022-07-29T08:31:41;6.93;;;5.97;;
45224;SDS011;30963;48.696;8.764;2022-07-29T08:34:07;6.20;;;5.57;;
45224;SDS011;30963;48.696;8.764;2022-07-29T08:36:36;6.03;;;5.40;;
45224;SDS011;30963;48.696;8.764;2022-07-29T08:39:03;6.78;;;6.18;;
45224;SDS011;30963;48.696;8.764;2022-07-29T08:41:30;6.22;;;5.60;;
45224;SDS011;30963;48.696;8.764;2022-07-29T08:43:56;6.45;;;5.95;;
45224;SDS011;30963;48.696;8.764;2022-07-29T08:46:22;6.38;;;5.25;;
45224;SDS011;30963;48.696;8.764;2022-07-29T08:48:49;6.68;;;6.07;;
45224;SDS011;30963;48.696;8.764;2022-07-29T08:51:15;7.05;;;6.45;;
45224;SDS011;30963;48.696;8.764;2022-07-29T08:53:42;5.88;;;5.35;;
45224;SDS011;30963;48.696;8.764;2022-07-29T08:56:12;6.13;;;5.53;;
45224;SDS011;30963;48.696;8.764;2022-07-29T08:58:38;7.65;;;5.53;;
45224;SDS011;30963;48.696;8.764;2022-07-29T09:01:05;6.45;;;5.95;;
45224;SDS011;30963;48.696;8.764;2022-07-29T09:03:32;6.10;;;5.60;;
45224;SDS011;30963;48.696;8.764;2022-07-29T09:06:00;5.80;;;5.25;;
45224;SDS011;30963;48.696;8.764;2022-07-29T09:08:26;6.95;;;5.93;;
45224;SDS011;30963;48.696;8.764;2022-07-29T09:10:53;5.70;;;5.20;;
45224;SDS011;30963;48.696;8.764;2022-07-29T09:13:22;7.07;;;5.68;;
45224;SDS011;30963;48.696;8.764;2022-07-29T09:15:48;6.95;;;5.80;;
45224;SDS011;30963;48.696;8.764;2022-07-29T09:20:59;6.30;;;5.45;;
45224;SDS011;30963;48.696;8.764;2022-07-29T09:24:17;6.40;;;5.90;;
45224;SDS011;30963;48.696;8.764;2022-07-29T09:26:37;6.45;;;5.85;;
45224;SDS011;30963;48.696;8.764;2022-07-29T09:29:11;7.82;;;5.85;;
45224;SDS011;30963;48.696;8.764;2022-07-29T09:31:38;6.40;;;5.80;;
45224;SDS011;30963;48.696;8.764;2022-07-29T09:34:04;6.55;;;5.93;;
45224;SDS011;30963;48.696;8.764;2022-07-29T09:36:30;6.18;;;5.65;;
45224;SDS011;30963;48.696;8.764;2022-07-29T09:39:02;6.40;;;5.90;;
45224;SDS011;30963;48.696;8.764;2022-07-29T09:41:28;10.27;;;6.03;;
45224;SDS011;30963;48.696;8.764;2022-07-29T09:43:58;12.82;;;8.32;;
45224;SDS011;30963;48.696;8.764;2022-07-29T09:46:24;14.70;;;8.35;;
45224;SDS011;30963;48.696;8.764;2022-07-29T09:49:06;12.52;;;7.65;;
45224;SDS011;30963;48.696;8.764;2022-07-29T09:51:33;8.65;;;7.80;;
45224;SDS011;30963;48.696;8.764;2022-07-29T09:54:00;9.65;;;8.40;;
45224;SDS011;30963;48.696;8.764;2022-07-29T09:59:08;10.48;;;8.35;;
45224;SDS011;30963;48.696;8.764;2022-07-29T10:01:34;9.20;;;8.45;;
45224;SDS011;30963;48.696;8.764;2022-07-29T10:04:01;9.80;;;7.57;;
45224;SDS011;30963;48.696;8.764;2022-07-29T10:06:27;6.93;;;6.25;;
45224;SDS011;30963;48.696;8.764;2022-07-29T10:09:02;7.15;;;6.45;;
45224;SDS011;30963;48.696;8.764;2022-07-29T10:11:32;7.10;;;6.40;;
45224;SDS011;30963;48.696;8.764;2022-07-29T10:13:58;7.28;;;6.63;;
45224;SDS011;30963;48.696;8.764;2022-07-29T10:16:26;6.65;;;6.13;;
45224;SDS011;30963;48.696;8.764;2022-07-29T10:18:58;6.47;;;5.97;;
45224;SDS011;30963;48.696;8.764;2022-07-29T10:21:28;6.32;;;5.82;;
45224;SDS011;30963;48.696;8.764;2022-07-29T10:23:55;6.35;;;5.85;;
45224;SDS011;30963;48.696;8.764;2022-07-29T10:26:22;6.78;;;6.07;;
45224;SDS011;30963;48.696;8.764;2022-07-29T10:28:49;6.78;;;6.10;;
45224;SDS011;30963;48.696;8.764;2022-07-29T10:31:39;7.55;;;6.63;;
45224;SDS011;30963;48.696;8.764;2022-07-29T10:36:32;6.80;;;5.82;;
45224;SDS011;30963;48.696;8.764;2022-07-29T10:41:46;6.03;;;5.40;;
45224;SDS011;30963;48.696;8.764;2022-07-29T10:44:18;6.05;;;5.45;;
45224;SDS011;30963;48.696;8.764;2022-07-29T10:46:44;5.78;;;5.10;;
45224;SDS011;30963;48.696;8.764;2022-07-29T10:51:52;5.65;;;5.15;;
45224;SDS011;30963;48.696;8.764;2022-07-29T10:59:39;4.00;;;3.70;;
45224;SDS011;30963;48.696;8.764;2022-07-29T11:07:15;3.90;;;3.60;;
45224;SDS011;30963;48.696;8.764;2022-07-29T11:09:42;4.88;;;3.85;;
45224;SDS011;30963;48.696;8.764;2022-07-29T11:14:55;4.75;;;4.10;;
45224;SDS011;30963;48.696;8.764;2022-07-29T11:17:22;4.40;;;4.05;;
45224;SDS011;30963;48.696;8.764;2022-07-29T11:19:48;4.55;;;4.15;;
45224;SDS011;30963;48.696;8.764;2022-07-29T11:22:33;4.80;;;4.40;;
45224;SDS011;30963;48.696;8.764;2022-07-29T11:25:12;4.72;;;4.32;;
45224;SDS011;30963;48.696;8.764;2022-07-29T11:27:41;5.30;;;4.90;;
45224;SDS011;30963;48.696;8.764;2022-07-29T11:30:09;5.30;;;4.80;;
45224;SDS011;30963;48.696;8.764;2022-07-29T11:32:42;5.55;;;4.95;;
45224;SDS011;30963;48.696;8.764;2022-07-29T11:35:27;5.95;;;5.32;;
45224;SDS011;30963;48.696;8.764;2022-07-29T11:43:45;6.15;;;5.65;;
45224;SDS011;30963;48.696;8.764;2022-07-29T11:46:11;6.10;;;5.60;;
45224;SDS011;30963;48.696;8.764;2022-07-29T11:48:41;5.90;;;5.50;;
45224;SDS011;30963;48.696;8.764;2022-07-29T11:51:09;6.35;;;5.80;;
45224;SDS011;30963;48.696;8.764;2022-07-29T11:53:35;6.47;;;5.88;;
45224;SDS011;30963;48.696;8.764;2022-07-29T11:56:01;6.80;;;6.10;;
45224;SDS011;30963;48.696;8.764;2022-07-29T11:58:27;7.80;;;7.10;;
45224;SDS011;30963;48.696;8.764;2022-07-29T12:00:54;6.75;;;6.25;;
45224;SDS011;30963;48.696;8.764;2022-07-29T12:03:24;6.78;;;6.28;;
45224;SDS011;30963;48.696;8.764;2022-07-29T12:05:51;6.72;;;6.13;;
45224;SDS011;30963;48.696;8.764;2022-07-29T12:08:17;7.43;;;6.72;;
45224;SDS011;30963;48.696;8.764;2022-07-29T12:10:44;7.05;;;6.55;;
45224;SDS011;30963;48.696;8.764;2022-07-29T12:13:11;6.60;;;5.97;;
45224;SDS011;30963;48.696;8.764;2022-07-29T12:15:40;6.32;;;5.72;;
45224;SDS011;30963;48.696;8.764;2022-07-29T12:18:10;6.45;;;5.95;;
45224;SDS011;30963;48.696;8.764;2022-07-29T12:20:36;6.30;;;5.80;;
45224;SDS011;30963;48.696;8.764;2022-07-29T12:23:08;6.03;;;5.63;;
45224;SDS011;30963;48.696;8.764;2022-07-29T12:25:40;5.35;;;5.03;;
45224;SDS011;30963;48.696;8.764;2022-07-29T12:28:09;5.80;;;5.32;;
45224;SDS011;30963;48.696;8.764;2022-07-29T12:30:44;5.95;;;5.45;;
45224;SDS011;30963;48.696;8.764;2022-07-29T12:33:20;6.15;;;5.72;;
45224;SDS011;30963;48.696;8.764;2022-07-29T12:35:49;5.63;;;5.22;;
45224;SDS011;30963;48.696;8.764;2022-07-29T12:38:16;6.18;;;5.70;;
45224;SDS011;30963;48.696;8.764;2022-07-29T12:40:42;6.40;;;6.00;;
45224;SDS011;30963;48.696;8.764;2022-07-29T12:43:12;5.15;;;4.75;;
45224;SDS011;30963;48.696;8.764;2022-07-29T12:45:39;5.45;;;5.05;;
45224;SDS011;30963;48.696;8.764;2022-07-29T12:48:05;6.15;;;5.65;;
45224;SDS011;30963;48.696;8.764;2022-07-29T12:50:36;5.85;;;5.35;;
45224;SDS011;30963;48.696;8.764;2022-07-29T12:53:09;5.35;;;4.95;;
45224;SDS011;30963;48.696;8.764;2022-07-29T12:58:07;4.28;;;3.97;;
45224;SDS011;30963;48.696;8.764;2022-07-29T13:00:35;4.90;;;4.50;;
45224;SDS011;30963;48.696;8.764;2022-07-29T13:03:01;4.35;;;4.05;;
45224;SDS011;30963;48.696;8.764;2022-07-29T13:05:43;4.60;;;4.30;;
45224;SDS011;30963;48.696;8.764;2022-07-29T13:08:10;5.00;;;4.60;;
45224;SDS011;30963;48.696;8.764;2022-07-29T13:10:36;5.13;;;4.72;;
45224;SDS011;30963;48.696;8.764;2022-07-29T13:13:06;5.07;;;4.70;;
45224;SDS011;30963;48.696;8.764;2022-07-29T13:15:34;5.90;;;5.40;;
45224;SDS011;30963;48.696;8.764;2022-07-29T13:18:03;5.80;;;5.22;;
45224;SDS011;30963;48.696;8.764;2022-07-29T13:20:29;5.85;;;5.43;;
45224;SDS011;30963;48.696;8.764;2022-07-29T13:22:59;6.07;;;5.50;;
45224;SDS011;30963;48.696;8.764;2022-07-29T13:25:29;6.32;;;5.93;;
45224;SDS011;30963;48.696;8.764;2022-07-29T13:27:56;6.53;;;5.93;;
45224;SDS011;30963;48.696;8.764;2022-07-29T13:30:25;6.15;;;5.70;;
45224;SDS011;30963;48.696;8.764;2022-07-29T13:32:52;6.15;;;5.68;;
45224;SDS011;30963;48.696;8.764;2022-07-29T13:35:18;6.30;;;5.90;;
45224;SDS011;30963;48.696;8.764;2022-07-29T13:37:45;6.32;;;5.82;;
45224;SDS011;30963;48.696;8.764;2022-07-29T13:40:11;6.90;;;6.30;;
45224;SDS011;30963;48.696;8.764;2022-07-29T13:42:37;6.95;;;6.32;;
45224;SDS011;30963;48.696;8.764;2022-07-29T13:45:04;6.90;;;6.30;;
45224;SDS011;30963;48.696;8.764;2022-07-29T13:47:31;6.80;;;6.30;;
45224;SDS011;30963;48.696;8.764;2022-07-29T13:49:57;6.53;;;6.03;;
45224;SDS011;30963;48.696;8.764;2022-07-29T13:52:26;7.03;;;6.50;;
45224;SDS011;30963;48.696;8.764;2022-07-29T13:54:52;6.57;;;5.88;;
45224;SDS011;30963;48.696;8.764;2022-07-29T13:57:20;9.88;;;6.60;;
45224;SDS011;30963;48.696;8.764;2022-07-29T13:59:48;7.65;;;6.07;;
45224;SDS011;30963;48.696;8.764;2022-07-29T14:02:18;6.90;;;6.30;;
45224;SDS011;30963;48.696;8.764;2022-07-29T14:04:44;6.65;;;6.15;;
45224;SDS011;30963;48.696;8.764;2022-07-29T14:07:10;6.35;;;5.75;;
45224;SDS011;30963;48.696;8.764;2022-07-29T14:09:36;7.03;;;6.25;;
45224;SDS011;30963;48.696;8.764;2022-07-29T14:12:04;6.03;;;5.53;;
45224;SDS011;30963;48.696;8.764;2022-07-29T14:14:30;6.50;;;5.93;;
45224;SDS011;30963;48.696;8.764;2022-07-29T14:16:57;6.05;;;5.45;;
45224;SDS011;30963;48.696;8.764;2022-07-29T14:19:23;6.97;;;6.05;;
45224;SDS011;30963;48.696;8.764;2022-07-29T14:21:49;5.93;;;5.53;;
45224;SDS011;30963;48.696;8.764;2022-07-29T14:24:15;8.25;;;5.80;;
45224;SDS011;30963;48.696;8.764;2022-07-29T14:26:41;6.97;;;6.28;;
45224;SDS011;30963;48.696;8.764;2022-07-29T14:29:07;6.07;;;5.57;;
45224;SDS011;30963;48.696;8.764;2022-07-29T14:31:39;5.85;;;5.35;;
45224;SDS011;30963;48.696;8.764;2022-07-29T14:34:05;5.85;;;5.45;;
45224;SDS011;30963;48.696;8.764;2022-07-29T14:36:33;6.43;;;5.82;;
45224;SDS011;30963;48.696;8.764;2022-07-29T14:38:59;5.90;;;5.40;;
45224;SDS011;30963;48.696;8.764;2022-07-29T14:41:25;6.32;;;5.90;;
45224;SDS011;30963;48.696;8.764;2022-07-29T14:43:54;5.75;;;5.35;;
45224;SDS011;30963;48.696;8.764;2022-07-29T14:46:20;6.65;;;6.05;;
45224;SDS011;30963;48.696;8.764;2022-07-29T14:48:46;6.05;;;5.50;;
45224;SDS011;30963;48.696;8.764;2022-07-29T14:51:14;6.60;;;5.68;;
45224;SDS011;30963;48.696;8.764;2022-07-29T14:53:41;6.20;;;5.45;;
45224;SDS011;30963;48.696;8.764;2022-07-29T14:56:07;6.93;;;5.40;;
45224;SDS011;30963;48.696;8.764;2022-07-29T14:58:33;5.38;;;4.97;;
45224;SDS011;30963;48.696;8.764;2022-07-29T15:00:59;5.93;;;5.32;;
45224;SDS011;30963;48.696;8.764;2022-07-29T15:03:25;6.28;;;5.75;;
45224;SDS011;30963;48.696;8.764;2022-07-29T15:05:54;5.97;;;5.53;;
45224;SDS011;30963;48.696;8.764;2022-07-29T15:08:20;6.10;;;5.57;;
45224;SDS011;30963;48.696;8.764;2022-07-29T15:10:46;7.97;;;5.55;;
45224;SDS011;30963;48.696;8.764;2022-07-29T15:13:14;6.90;;;5.47;;
45224;SDS011;30963;48.696;8.764;2022-07-29T15:15:40;6.32;;;5.65;;
45224;SDS011;30963;48.696;8.764;2022-07-29T15:18:06;6.45;;;5.50;;
45224;SDS011;30963;48.696;8.764;2022-07-29T15:20:36;5.90;;;5.40;;
45224;SDS011;30963;48.696;8.764;2022-07-29T15:23:02;7.47;;;5.55;;
45224;SDS011;30963;48.696;8.764;2022-07-29T15:25:28;5.57;;;5.22;;
45224;SDS011;30963;48.696;8.764;2022-07-29T15:27:54;7.70;;;5.57;;
45224;SDS011;30963;48.696;8.764;2022-07-29T15:30:20;5.47;;;4.97;;
45224;SDS011;30963;48.696;8.764;2022-07-29T15:32:46;5.07;;;4.68;;
45224;SDS011;30963;48.696;8.764;2022-07-29T15:35:14;5.93;;;5.07;;
45224;SDS011;30963;48.696;8.764;2022-07-29T15:37:40;5.55;;;5.00;;